Time;durP1;ratioP1;P1;durP2;ratioP2;P2;SDS_P1;SDS_P2;PMS_P1;PMS_P2;Temp;Humidity;BMP_temperature;BMP_pressure;BME280_temperature;BME280_humidity;BME280_pressure;Samples;Min_cycle;Max_cycle;Signal;HPM_P1;HPM_P2
2022/12/29 00:02:32;;;;;;;47.17;20.52;;;;;;;-0.76;90.97;99095.72;4042083;87;21076;-89
2022/12/29 00:08:39;;;;;;;48.17;18.40;;;;;;;-0.74;91.54;99090.04;4040860;87;21054;-89
2022/12/29 00:46:25;;;;;;;44.25;18.45;;;;;;;-0.96;92.92;99081.87;4038609;86;21119;-90
2022/12/29 00:52:28;;;;;;;37.00;16.50;;;;;;;-1.00;93.09;99088.94;4038533;86;21195;-88
2022/12/29 00:58:30;;;;;;;31.12;14.87;;;;;;;-1.00;93.28;99077.63;4033999;87;21087;-90
2022/12/29 01:04:32;;;;;;;53.20;21.57;;;;;;;-1.11;93.51;99093.68;4039919;86;21047;-89
2022/12/29 01:10:35;;;;;;;61.90;26.75;;;;;;;-1.06;93.58;99090.91;4021664;87;21469;-89
2022/12/29 01:16:37;;;;;;;65.00;29.50;;;;;;;-1.06;93.58;99090.91;4041539;86;21109;-89
2022/12/29 01:22:40;;;;;;;43.28;18.65;;;;;;;-1.01;93.93;99075.23;4018248;87;22184;-89
2022/12/29 01:28:42;;;;;;;38.60;18.63;;;;;;;-1.06;94.01;99075.33;4012394;87;21696;-89
2022/12/29 01:34:45;;;;;;;35.58;15.53;;;;;;;-1.05;94.82;99048.73;4012357;87;21060;-89
2022/12/29 01:40:47;;;;;;;41.03;19.50;;;;;;;-0.96;95.12;99038.88;3996248;87;21076;-89
2022/12/29 01:46:51;;;;;;;40.38;17.02;;;;;;;-0.88;95.50;99038.17;4017546;87;21080;-89
2022/12/29 01:53:14;;;;;;;47.23;20.30;;;;;;;-0.83;95.74;99039.42;4021045;87;21036;-90
2022/12/29 01:59:22;;;;;;;51.00;22.95;;;;;;;-0.79;96.34;99043.91;4005569;87;21736;-91
2022/12/29 02:05:41;;;;;;;62.05;24.45;;;;;;;-0.77;96.23;99051.13;3974788;87;21139;-89
2022/12/29 02:11:46;;;;;;;63.80;29.87;;;;;;;-0.81;96.21;99035.88;4002703;87;21096;-89
2022/12/29 02:18:12;;;;;;;48.55;22.50;;;;;;;-0.78;96.44;99030.70;3987392;87;21140;-90
2022/12/29 02:24:39;;;;;;;50.03;22.40;;;;;;;-0.68;97.09;99029.16;3904198;88;21158;-90
2022/12/29 02:30:45;;;;;;;50.38;23.45;;;;;;;-0.65;96.46;99020.48;3906819;89;22063;-89
2022/12/29 02:37:01;;;;;;;61.05;28.23;;;;;;;-0.65;97.22;99006.24;3909123;89;21095;-90
2022/12/29 02:43:37;;;;;;;63.10;29.45;;;;;;;-0.57;96.82;99007.69;3912739;90;22190;-89
2022/12/29 02:49:53;;;;;;;73.63;29.43;;;;;;;-0.54;97.26;98992.29;3915132;88;21162;-91
2022/12/29 02:55:54;;;;;;;64.85;29.02;;;;;;;-0.48;97.41;98978.97;3901748;90;21242;-90
2022/12/29 03:02:30;;;;;;;66.75;29.80;;;;;;;-0.31;97.76;98985.84;3969723;88;21111;-90
2022/12/29 03:08:49;;;;;;;67.97;30.12;;;;;;;-0.31;97.76;98985.84;3961875;87;21513;-91
2022/12/29 03:28:12;;;;;;;65.22;30.48;;;;;;;-0.16;97.56;98943.77;4026052;87;21112;-90
2022/12/29 03:34:20;;;;;;;73.50;32.30;;;;;;;-0.13;97.31;98954.48;4155912;83;2055605;-91
2022/12/29 03:40:26;;;;;;;66.45;30.62;;;;;;;-0.17;97.49;98955.64;4189207;83;21021;-91
2022/12/29 03:46:28;;;;;;;64.63;30.40;;;;;;;-0.21;97.52;98962.75;4180768;84;21081;-90
2022/12/29 03:52:30;;;;;;;72.78;31.82;;;;;;;-0.26;97.68;98956.14;4186533;83;21069;-90
2022/12/29 03:58:32;;;;;;;65.12;27.22;;;;;;;-0.27;97.72;98965.86;4182842;83;20998;-89
2022/12/29 04:04:45;;;;;;;70.50;30.95;;;;;;;-0.37;97.86;98966.89;4173127;84;21570;-91
2022/12/29 04:10:49;;;;;;;69.42;30.82;;;;;;;-0.49;98.16;98956.42;4168950;83;21407;-90
2022/12/29 04:16:52;;;;;;;61.48;28.67;;;;;;;-0.55;98.32;98957.64;4173868;83;21045;-90
2022/12/29 04:23:04;;;;;;;57.67;26.60;;;;;;;-0.38;98.10;98996.23;4182589;83;21044;-90
2022/12/29 04:29:08;;;;;;;62.58;28.87;;;;;;;-0.46;97.94;98992.11;4187762;83;21097;-90
2022/12/29 04:35:30;;;;;;;49.85;23.47;;;;;;;-0.45;98.23;98979.71;4076522;86;21087;-90
2022/12/29 04:41:33;;;;;;;48.45;21.30;;;;;;;-0.34;97.93;98953.37;4092545;85;21654;-90
2022/12/29 04:47:36;;;;;;;36.93;18.00;;;;;;;-0.34;97.93;98952.02;4116551;85;21850;-89
2022/12/29 04:53:42;;;;;;;45.43;19.80;;;;;;;-0.40;97.79;98942.48;4115885;85;21086;-90
2022/12/29 04:59:45;;;;;;;34.85;14.35;;;;;;;-0.52;98.13;98920.73;4112135;85;21139;-89
2022/12/29 05:05:47;;;;;;;34.33;16.32;;;;;;;-0.48;98.32;98940.52;4114043;85;21548;-91
2022/12/29 05:11:50;;;;;;;39.42;17.98;;;;;;;-0.56;98.49;98955.48;4117558;85;21133;-90
2022/12/29 05:18:20;;;;;;;42.15;18.92;;;;;;;-0.77;99.04;98920.77;4103814;85;21042;-89
2022/12/29 05:24:27;;;;;;;50.15;22.60;;;;;;;-0.77;99.04;98920.77;4104854;85;21119;-90
2022/12/29 05:30:32;;;;;;;38.00;17.90;;;;;;;-0.62;99.00;98934.39;4155188;84;22068;-89
2022/12/29 05:36:35;;;;;;;40.45;17.37;;;;;;;-0.61;99.11;98924.67;4174666;84;21632;-88
2022/12/29 05:42:38;;;;;;;22.93;9.30;;;;;;;-0.37;99.60;98903.69;4186099;83;21041;-87
2022/12/29 05:48:43;;;;;;;26.15;12.75;;;;;;;-0.37;99.60;98903.69;4178596;84;21058;-87
2022/12/29 05:54:56;;;;;;;42.67;21.57;;;;;;;-0.34;99.18;98897.69;4168653;84;21292;-89
2022/12/29 06:01:01;;;;;;;54.95;28.07;;;;;;;-0.28;99.46;98910.45;4177208;84;21014;-88
2022/12/29 06:07:03;;;;;;;56.85;25.65;;;;;;;-0.33;99.12;98932.89;4185717;84;21042;-90
2022/12/29 06:13:16;;;;;;;46.05;22.62;;;;;;;-0.31;98.91;98909.17;4178957;84;21121;-89
2022/12/29 06:19:20;;;;;;;44.50;23.87;;;;;;;-0.35;98.54;98906.06;4183713;83;21550;-89
2022/12/29 06:25:22;;;;;;;46.68;21.12;;;;;;;-0.48;98.67;98900.19;4181021;84;21121;-90
2022/12/29 06:31:27;;;;;;;45.15;21.77;;;;;;;-0.50;98.87;98897.03;4149662;84;21073;-89
2022/12/29 06:37:29;;;;;;;46.85;20.25;;;;;;;-0.50;98.87;98897.03;4153968;84;21076;-89
2022/12/29 06:43:33;;;;;;;52.55;22.55;;;;;;;-0.63;98.08;98919.37;4185616;84;21039;-88
2022/12/29 06:49:46;;;;;;;33.02;15.10;;;;;;;-0.60;98.91;98924.14;4167909;84;21129;-89
2022/12/29 06:55:48;;;;;;;39.80;17.40;;;;;;;-0.45;98.93;98918.39;4173347;84;21561;-88
2022/12/29 07:01:58;;;;;;;39.40;17.30;;;;;;;-0.26;99.10;98882.70;4173187;84;21069;-89
2022/12/29 07:08:05;;;;;;;23.47;9.95;;;;;;;-0.26;99.10;98882.70;4177239;84;21025;-89
2022/12/29 07:14:07;;;;;;;12.20;5.30;;;;;;;0.15;99.43;98894.57;4104347;85;22032;-88
2022/12/29 07:20:12;;;;;;;7.60;4.27;;;;;;;0.99;99.48;98849.59;4015518;86;22434;-89
2022/12/29 07:26:18;;;;;;;13.50;6.62;;;;;;;1.80;98.25;98885.61;4113110;85;21141;-90
2022/12/29 07:32:22;;;;;;;14.00;6.28;;;;;;;1.71;96.98;98889.43;4084732;85;21077;-91
2022/12/29 07:38:25;;;;;;;11.95;5.28;;;;;;;1.56;96.65;98897.45;4039360;86;21090;-90
2022/12/29 07:44:27;;;;;;;11.60;5.83;;;;;;;1.50;96.85;98890.63;4108680;84;21046;-89
2022/12/29 07:50:35;;;;;;;13.22;5.67;;;;;;;1.49;96.81;98895.22;4110311;85;21076;-90
2022/12/29 07:56:37;;;;;;;15.20;6.42;;;;;;;1.34;96.81;98894.91;4110660;85;21123;-90
2022/12/29 08:02:46;;;;;;;19.00;7.00;;;;;;;1.39;97.34;98886.66;4110401;85;21171;-90
2022/12/29 08:08:48;;;;;;;19.67;7.00;;;;;;;1.38;96.85;98882.36;4114573;85;21090;-89
2022/12/29 08:14:49;;;;;;;19.82;8.25;;;;;;;1.33;96.96;98891.98;4117373;85;21098;-90
2022/12/29 08:20:53;;;;;;;19.60;7.47;;;;;;;1.34;97.21;98899.75;4110356;85;21063;-90
2022/12/29 08:27:01;;;;;;;24.50;9.88;;;;;;;1.55;97.53;98906.66;4120386;85;21082;-90
2022/12/29 08:33:19;;;;;;;21.80;9.28;;;;;;;1.98;97.40;98906.59;4085916;85;21095;-89
2022/12/29 08:39:16;;;;;;;26.77;10.82;;;;;;;2.42;96.89;98903.46;4118985;85;21099;-90
2022/12/29 08:45:18;;;;;;;32.13;13.08;;;;;;;2.68;96.39;98903.59;4122603;85;21099;-89
2022/12/29 08:51:22;;;;;;;31.62;12.00;;;;;;;2.71;96.10;98896.17;4119459;85;21071;-90
2022/12/29 08:57:24;;;;;;;24.92;11.00;;;;;;;2.79;95.97;98895.89;4121124;85;21095;-89
2022/12/29 09:03:30;;;;;;;23.97;9.50;;;;;;;2.84;96.15;98891.11;4115155;85;21334;-91
2022/12/29 09:09:33;;;;;;;24.98;9.98;;;;;;;3.13;96.12;98899.19;4122758;85;21063;-90
2022/12/29 09:15:38;;;;;;;34.40;12.47;;;;;;;3.42;96.30;98892.14;4125387;85;21075;-92
2022/12/29 09:21:39;;;;;;;25.05;10.63;;;;;;;3.76;96.14;98893.23;4117908;85;22086;-92
2022/12/29 09:27:45;;;;;;;32.75;15.72;;;;;;;4.44;97.70;98878.95;4110222;85;22254;-89
2022/12/29 09:33:46;;;;;;;47.60;21.00;;;;;;;4.92;97.46;98867.34;4112962;85;21507;-90
2022/12/29 09:39:48;;;;;;;33.83;18.00;;;;;;;5.68;97.22;98857.19;4110360;85;21582;-90
2022/12/29 09:46:12;;;;;;;36.80;20.30;;;;;;;6.27;95.43;98841.72;4087736;85;21717;-90
2022/12/29 09:52:28;;;;;;;33.13;17.00;;;;;;;7.00;95.52;98835.91;4107309;85;22459;-90
2022/12/29 09:58:41;;;;;;;34.10;18.98;;;;;;;7.62;93.83;98843.88;4103073;85;21151;-90
2022/12/29 10:04:44;;;;;;;32.50;17.60;;;;;;;8.01;92.24;98867.79;4109423;85;21071;-91
2022/12/29 10:11:19;;;;;;;33.67;17.60;;;;;;;8.51;92.11;98864.04;4106978;85;21052;-91
2022/12/29 10:17:46;;;;;;;34.65;17.82;;;;;;;8.27;92.58;98843.95;4105340;85;21018;-91
2022/12/29 10:23:52;;;;;;;27.27;15.07;;;;;;;8.21;92.04;98846.72;4102610;85;21123;-90
2022/12/29 10:29:56;;;;;;;17.60;9.48;;;;;;;8.69;90.97;98852.26;4117216;85;21005;-91
2022/12/29 10:35:59;;;;;;;15.72;7.90;;;;;;;9.12;90.61;98835.95;4120203;85;22104;-90
2022/12/29 10:42:22;;;;;;;17.10;8.85;;;;;;;9.61;90.54;98834.46;4120178;85;21039;-91
2022/12/29 10:48:31;;;;;;;15.15;7.67;;;;;;;9.93;89.67;98828.20;4095377;85;21267;-91
2022/12/29 10:54:50;;;;;;;14.50;7.20;;;;;;;10.16;89.26;98826.14;4117631;85;21100;-91
2022/12/29 11:00:54;;;;;;;11.28;6.22;;;;;;;10.50;88.22;98815.31;4114373;85;21056;-90
2022/12/29 11:06:57;;;;;;;12.07;6.10;;;;;;;10.38;87.98;98806.61;4112382;85;21095;-91
2022/12/29 11:13:15;;;;;;;10.48;6.08;;;;;;;10.33;87.37;98796.00;3985782;88;21066;-88
2022/12/29 11:19:24;;;;;;;7.58;4.83;;;;;;;10.30;86.74;98793.45;4054188;86;21043;-90
2022/12/29 11:25:26;;;;;;;7.25;4.67;;;;;;;10.34;86.33;98798.93;4136840;84;21730;-90
2022/12/29 11:31:28;;;;;;;6.85;4.00;;;;;;;10.39;86.34;98787.64;4158705;84;22009;-90
2022/12/29 11:37:39;;;;;;;10.55;3.40;;;;;;;10.30;85.75;98782.50;4158424;84;21658;-91
2022/12/29 11:43:44;;;;;;;4.95;3.47;;;;;;;10.27;84.93;98788.73;4157896;84;21334;-88
2022/12/29 11:49:52;;;;;;;7.37;3.98;;;;;;;10.30;84.24;98794.02;4156336;84;21900;-88
2022/12/29 11:56:01;;;;;;;8.85;4.25;;;;;;;10.21;82.36;98790.82;4152385;84;21916;-88
2022/12/29 12:02:31;;;;;;;7.08;4.00;;;;;;;10.16;82.57;98778.28;4157792;84;21682;-89
2022/12/29 12:08:55;;;;;;;10.00;4.55;;;;;;;10.27;81.97;98780.53;4125890;84;22118;-89
2022/12/29 12:14:59;;;;;;;7.33;4.05;;;;;;;10.28;81.42;98786.20;4155098;84;21535;-90
2022/12/29 12:21:22;;;;;;;8.13;4.15;;;;;;;10.32;81.27;98791.70;4144051;84;21130;-90
2022/12/29 12:27:48;;;;;;;8.00;4.50;;;;;;;10.29;81.12;98782.88;4176583;83;21096;-90
2022/12/29 12:33:55;;;;;;;7.77;4.67;;;;;;;10.36;80.64;98778.83;4176512;83;21050;-89
2022/12/29 12:40:19;;;;;;;;;;;;;;;10.36;80.40;98783.73;4076667;86;21059;-89
2022/12/29 12:47:05;;;;;;;9.05;5.05;;;;;;;10.29;79.90;98786.98;4036675;86;20173;-90
2022/12/29 12:53:32;;;;;;;7.22;4.70;;;;;;;10.15;80.32;98785.49;4154413;83;21048;-88
2022/12/29 12:59:51;;;;;;;10.27;5.27;;;;;;;10.08;80.36;98786.78;4178700;83;21740;-90
2022/12/29 13:06:13;;;;;;;11.00;4.85;;;;;;;10.03;80.41;98788.45;4078702;86;21396;-89
2022/12/29 13:12:38;;;;;;;12.53;5.42;;;;;;;10.00;80.53;98784.53;4055028;85;21053;-89
2022/12/29 13:19:12;;;;;;;8.73;5.45;;;;;;;9.99;80.47;98795.84;4048132;85;21429;-89
2022/12/29 13:25:44;;;;;;;13.60;7.85;;;;;;;9.99;80.33;98802.08;4086899;85;21053;-89
2022/12/29 13:31:56;;;;;;;15.30;7.67;;;;;;;10.01;80.27;98801.70;4062908;86;21192;-90
2022/12/29 13:38:21;;;;;;;11.03;6.00;;;;;;;9.98;80.00;98804.63;4079938;86;21533;-88
2022/12/29 13:44:37;;;;;;;10.98;5.50;;;;;;;9.95;79.24;98799.91;4176500;83;21672;-89
2022/12/29 13:50:40;;;;;;;8.13;4.75;;;;;;;9.80;79.20;98799.56;4160195;84;21581;-89
2022/12/29 13:56:47;;;;;;;10.63;4.97;;;;;;;9.73;77.90;98800.04;4183419;82;21033;-90
2022/12/29 14:03:14;;;;;;;13.13;6.28;;;;;;;9.66;78.29;98800.77;4176077;84;21864;-88
2022/12/29 14:09:54;;;;;;;9.73;5.28;;;;;;;9.53;77.70;98794.77;4183694;83;21093;-89
2022/12/29 14:15:58;;;;;;;12.00;5.37;;;;;;;9.31;77.83;98799.75;4157187;84;21105;-88
2022/12/29 14:22:04;;;;;;;11.55;5.25;;;;;;;9.15;77.70;98795.62;4171302;84;21641;-89
2022/12/29 14:28:17;;;;;;;14.25;5.28;;;;;;;9.02;77.57;98805.20;4193929;83;21093;-89
2022/12/29 14:34:29;;;;;;;8.95;5.17;;;;;;;8.90;77.66;98795.28;4196810;83;21725;-90
2022/12/29 14:40:33;;;;;;;10.20;5.67;;;;;;;8.68;77.92;98796.69;4212520;83;20995;-89
2022/12/29 14:46:51;;;;;;;9.08;5.17;;;;;;;8.49;78.16;98790.75;4211355;83;21091;-89
2022/12/29 14:53:01;;;;;;;10.28;5.60;;;;;;;;;;4221543;83;21072;-89
2022/12/29 14:59:06;;;;;;;13.13;6.55;;;;;;;8.22;78.36;98800.03;4217964;83;21135;-89
2022/12/29 15:05:17;;;;;;;16.70;7.17;;;;;;;8.14;78.45;98811.96;4214277;83;21058;-90
2022/12/29 15:11:25;;;;;;;14.03;7.67;;;;;;;8.03;78.46;98805.53;4201033;83;21651;-89
2022/12/29 15:17:34;;;;;;;21.77;11.15;;;;;;;8.06;78.12;98806.16;4215553;83;21376;-89
2022/12/29 15:23:37;;;;;;;24.65;12.65;;;;;;;8.02;77.96;98813.47;4219011;83;21102;-90
2022/12/29 15:29:46;;;;;;;39.18;19.98;;;;;;;7.86;77.85;98812.22;4208356;83;21051;-89
2022/12/29 15:35:52;;;;;;;49.30;24.37;;;;;;;7.67;77.75;98803.29;4223663;83;21075;-89
2022/12/29 15:42:01;;;;;;;46.77;19.35;;;;;;;7.49;77.90;98803.50;4201012;83;21066;-87
2022/12/29 15:48:05;;;;;;;30.05;15.20;;;;;;;7.30;78.04;98799.41;4219200;83;21666;-88
2022/12/29 15:54:21;;;;;;;37.23;17.77;;;;;;;7.12;78.14;98796.90;4215196;83;21582;-87
2022/12/29 16:00:30;;;;;;;37.08;16.57;;;;;;;6.88;78.28;98799.30;4201217;83;21082;-88
2022/12/29 16:06:45;;;;;;;31.87;13.58;;;;;;;6.64;78.58;98794.66;4219849;83;21535;-89
2022/12/29 16:12:49;;;;;;;24.50;12.07;;;;;;;6.46;78.69;98809.19;4216466;83;21066;-89
2022/12/29 16:18:52;;;;;;;25.68;13.05;;;;;;;6.29;78.92;98809.55;4192509;83;21030;-89
2022/12/29 16:25:04;;;;;;;34.15;16.45;;;;;;;6.16;79.07;98806.69;4207823;83;21074;-90
2022/12/29 16:31:27;;;;;;;27.87;13.88;;;;;;;5.98;79.18;98814.38;4178863;83;21009;-88
2022/12/29 16:37:40;;;;;;;30.05;14.55;;;;;;;5.95;79.47;98805.56;4170985;83;21045;-89
2022/12/29 16:43:42;;;;;;;30.85;14.38;;;;;;;5.90;79.69;98801.74;4166889;83;21058;-89
2022/12/29 16:49:51;;;;;;;22.65;11.83;;;;;;;5.80;79.92;98817.73;4171574;83;21097;-89
2022/12/29 16:55:54;;;;;;;21.48;10.28;;;;;;;5.77;80.39;98812.44;4168323;83;21049;-89
2022/12/29 17:02:00;;;;;;;19.67;10.23;;;;;;;5.83;80.67;98810.28;4178307;83;21514;-88
2022/12/29 17:08:06;;;;;;;19.07;10.03;;;;;;;5.86;80.72;98813.66;4176526;83;21084;-87
2022/12/29 17:14:26;;;;;;;20.05;10.30;;;;;;;6.03;80.86;98804.61;4147457;83;21117;-89
2022/12/29 17:20:31;;;;;;;22.73;9.70;;;;;;;5.98;80.75;98800.80;4173306;83;21146;-89
2022/12/29 17:26:33;;;;;;;22.13;10.10;;;;;;;5.89;80.84;98812.96;4173490;83;21105;-88
2022/12/29 17:32:35;;;;;;;25.75;12.18;;;;;;;5.86;81.06;98810.38;4170735;84;21035;-89
2022/12/29 17:38:38;;;;;;;23.15;11.18;;;;;;;5.83;81.20;98810.28;4150817;84;21053;-89
2022/12/29 17:44:41;;;;;;;24.67;11.97;;;;;;;5.70;81.43;98814.95;4155355;84;20989;-88
2022/12/29 17:50:48;;;;;;;23.32;11.60;;;;;;;5.51;81.65;98814.80;4154790;84;21029;-88
2022/12/29 17:56:51;;;;;;;44.85;19.55;;;;;;;5.46;81.92;98808.84;4153529;84;21041;-88
2022/12/29 18:02:57;;;;;;;36.95;15.83;;;;;;;5.41;81.91;98826.17;4036277;83;9999646;-90
2022/12/29 18:08:59;;;;;;;33.58;16.32;;;;;;;5.35;82.27;98833.55;4140018;84;21030;-87
2022/12/29 18:15:01;;;;;;;37.05;16.82;;;;;;;5.17;82.30;98830.89;4029313;87;20978;-88
2022/12/29 18:21:03;;;;;;;31.65;14.87;;;;;;;4.88;82.55;98832.52;4076751;85;21915;-88
2022/12/29 18:27:14;;;;;;;30.05;15.85;;;;;;;4.64;82.95;98816.50;4176131;83;22015;-88
2022/12/29 18:33:19;;;;;;;26.70;13.98;;;;;;;4.20;82.83;98816.58;4199071;83;21061;-88
2022/12/29 18:39:23;;;;;;;32.23;15.53;;;;;;;4.00;83.69;98805.27;4194441;83;21045;-88
2022/12/29 18:45:24;;;;;;;40.65;19.05;;;;;;;3.73;83.48;98812.68;4197553;84;21107;-89
2022/12/29 18:51:26;;;;;;;43.90;18.77;;;;;;;3.48;84.16;98821.26;4191194;83;21031;-88
2022/12/29 18:57:30;;;;;;;44.48;21.55;;;;;;;3.38;84.78;98814.13;4194954;84;20992;-89
2022/12/29 19:03:32;;;;;;;49.77;21.80;;;;;;;3.31;85.15;98812.50;4196174;84;21074;-88
2022/12/29 19:09:33;;;;;;;45.52;20.43;;;;;;;3.26;85.61;98811.37;4201449;84;21863;-88
2022/12/29 19:15:39;;;;;;;40.35;18.02;;;;;;;3.21;85.80;98805.02;4123183;85;21056;-88
2022/12/29 19:21:43;;;;;;;38.45;16.77;;;;;;;3.31;86.72;98790.85;4186818;84;21940;-88
2022/12/29 19:27:45;;;;;;;41.37;17.40;;;;;;;3.46;86.82;98787.55;4186014;83;21083;-88
2022/12/29 19:33:46;;;;;;;38.63;17.37;;;;;;;3.55;87.11;98789.05;4189851;83;21480;-88
2022/12/29 19:39:53;;;;;;;34.53;15.78;;;;;;;3.70;87.42;98787.05;4103299;85;21028;-88
2022/12/29 19:45:55;;;;;;;32.80;15.38;;;;;;;3.94;87.72;98783.60;4202391;84;22471;-88
2022/12/29 19:51:56;;;;;;;31.35;14.75;;;;;;;4.12;87.64;98797.19;4191700;83;21032;-88
2022/12/29 19:57:58;;;;;;;28.35;14.75;;;;;;;4.34;87.56;98824.63;4199295;84;21571;-89
2022/12/29 20:04:01;;;;;;;28.32;12.90;;;;;;;4.40;87.26;98827.33;4082836;86;21022;-88
2022/12/29 20:10:06;;;;;;;24.57;9.98;;;;;;;4.72;87.88;98841.91;4089156;85;21088;-88
2022/12/29 20:16:16;;;;;;;21.20;10.63;;;;;;;5.05;87.75;98837.68;4133330;84;21021;-88
2022/12/29 20:22:18;;;;;;;23.83;10.90;;;;;;;5.29;87.74;98841.70;4094157;85;20997;-89
2022/12/29 20:28:19;;;;;;;27.42;10.45;;;;;;;5.42;87.86;98838.60;4075855;86;21997;-88
2022/12/29 20:34:21;;;;;;;20.25;10.63;;;;;;;5.60;87.48;98839.11;4090957;85;21009;-88
2022/12/29 20:40:23;;;;;;;24.23;10.65;;;;;;;5.87;87.19;98845.91;4101182;85;21013;-88
2022/12/29 20:46:26;;;;;;;21.60;9.03;;;;;;;6.13;86.95;98835.92;4199566;84;20996;-89
2022/12/29 20:52:31;;;;;;;20.20;9.20;;;;;;;6.53;86.19;98825.66;4200977;84;21020;-88
2022/12/29 20:58:34;;;;;;;19.02;8.83;;;;;;;6.60;85.84;98837.28;4196825;83;21982;-89
2022/12/29 21:04:38;;;;;;;17.45;9.10;;;;;;;6.61;85.69;98824.69;4193468;83;21106;-88
2022/12/29 21:10:42;;;;;;;19.23;8.98;;;;;;;6.60;85.53;98834.56;4124062;85;21065;-87
2022/12/29 21:16:43;;;;;;;16.70;7.95;;;;;;;6.63;85.36;98833.86;4140085;85;21534;-88
2022/12/29 21:22:47;;;;;;;17.02;8.23;;;;;;;6.63;85.19;98832.50;4068714;85;21581;-89
2022/12/29 21:28:50;;;;;;;16.52;8.73;;;;;;;6.54;85.12;98836.78;4191077;82;21514;-89
2022/12/29 21:34:52;;;;;;;26.00;8.90;;;;;;;6.39;84.89;98839.70;4180310;83;21104;-89
2022/12/29 21:40:53;;;;;;;20.20;9.38;;;;;;;6.23;84.74;98849.78;4185389;82;21009;-88
2022/12/29 21:46:55;;;;;;;19.60;9.10;;;;;;;6.18;84.83;98852.78;4186792;83;22000;-89
2022/12/29 21:52:56;;;;;;;21.00;10.23;;;;;;;6.11;84.69;98843.06;4187361;83;20998;-88
2022/12/29 22:18:02;;;;;;;15.40;7.42;;;;;;;5.93;84.22;98836.39;4180307;83;21128;-88
2022/12/29 22:24:05;;;;;;;16.45;7.40;;;;;;;5.90;84.21;98831.62;4187049;83;21017;-89
2022/12/29 22:30:09;;;;;;;12.93;5.83;;;;;;;5.93;84.13;98843.19;4183706;82;21085;-88
2022/12/29 22:36:10;;;;;;;10.10;5.05;;;;;;;5.98;84.09;98857.08;4183327;83;21129;-89
2022/12/29 22:42:14;;;;;;;11.35;5.62;;;;;;;5.94;83.65;98873.84;4188859;84;21054;-88
2022/12/29 22:48:15;;;;;;;14.25;6.10;;;;;;;5.83;83.53;98861.89;4186208;84;21634;-87
2022/12/29 22:54:18;;;;;;;14.95;6.87;;;;;;;5.75;83.52;98868.23;4184415;83;21077;-89
2022/12/29 23:00:20;;;;;;;13.30;6.35;;;;;;;5.63;83.43;98870.45;4153224;84;21073;-87
2022/12/29 23:06:21;;;;;;;14.63;6.05;;;;;;;5.51;83.53;98873.77;4190731;83;21672;-89
2022/12/29 23:12:23;;;;;;;12.18;6.00;;;;;;;5.44;83.55;98876.27;4178347;84;21050;-88
2022/12/29 23:18:25;;;;;;;15.48;6.85;;;;;;;5.46;83.71;98870.73;4182317;83;21073;-88
2022/12/29 23:24:28;;;;;;;14.18;6.22;;;;;;;5.41;83.62;98871.52;4187304;84;21413;-88
2022/12/29 23:30:31;;;;;;;19.37;8.15;;;;;;;5.37;83.64;98877.43;4178129;83;21121;-88
2022/12/29 23:36:34;;;;;;;25.62;9.65;;;;;;;5.24;83.73;98871.80;4176197;83;21061;-89
2022/12/29 23:42:35;;;;;;;13.18;6.55;;;;;;;5.21;83.89;98866.50;4180093;83;20963;-88
2022/12/29 23:48:38;;;;;;;13.00;6.22;;;;;;;5.15;83.96;98858.37;4178920;83;21277;-89
2022/12/29 23:54:40;;;;;;;14.65;5.90;;;;;;;5.31;84.24;98856.50;4181166;83;21064;-88
